Montrose, CO

10:57 PM MDT on August 25, 2016 (GMT -0600)
Moonlight Mesa | | Change Station

Elev 6155 ft 38.40 °N, 107.86 °W | Updated 6 seconds ago

Light Rain
Light Rain
53.6 °F
Feels Like 53.6 °F
N
10.3
Wind Variable Wind from SE
Gusts 15.0 mph

Today
High -- | Low -- °F
--% Chance of Precip.
Yesterday
High -- | Low -- °F
Precip. -- in
Pressure 30.15 in
Visibility 10.0 miles
Clouds Overcast 7500 ft
Dew Point 49 °F
Humidity 85%
Rainfall 0.11 in
Snow Depth Not available.
6:35 AM 7:50 PM
Last Quarter, 38% visible
METAR KMTJ 260453Z AUTO 14018G24KT 10SM -RA OVC075 13/09 A3032 RMK AO2 RAB12 SLP209 P0001 T01280094
Pressure 30.15 in
Visibility 10.0 miles
Clouds Overcast 7500 ft
Dew Point 49 °F
Humidity 85%
Rainfall 0.11 in
Snow Depth Not available.
6:35 AM 7:50 PM
Last Quarter, 38% visible
METAR KMTJ 260453Z AUTO 14018G24KT 10SM -RA OVC075 13/09 A3032 RMK AO2 RAB12 SLP209 P0001 T01280094
A tropical disturbance pushing toward the Bahamas, is expected to develop into a tropical depression or storm, and will likely target Florida and the Gulf Coast this weekend into next week.

Right now, the disturbance remains a broad area of low pressure pushing through the Dominican Republic and Haiti, headed toward the southeast Bahamas. Rainfall totals over 3 inches (with locally higher amounts) are expected in HispaƱiola, particularly over elevated terrain.

10-Day Weather Forecast

Almanac

Astronomy

Aug. 25, 2016 Rise Set
Actual Time
Civil Twilight
Nautical Twilight
Astronomical Twilight
Moon
Length of Visible Light
Length of Day
Tomorrow will be .
, % of the Moon is Illuminated

Today's Extremes

State Highs State Lows

Community

WunderPhotos

Upload Photos

1,935,056 photos uploaded!

WunderBlog® & News

Nearby

Air Quality

  Air Quality AQ Index Pollutant
Not available.

Snow Depth

Station Depth Elevation

Earthquake Activity

City Distance Mag. Time & Date
Minimum magnitude displayed is 2.5.

Coastal Water Temperatures

Place Temperature

Stations

Nearby Weather Stations

Station Location Temp. Windchill Dew Point Humidity Wind Precip. Elev Updated Type
                   

Watches & Warnings

There are currently no watches in effect.